Time;durP1;ratioP1;P1;durP2;ratioP2;P2;SDS_P1;SDS_P2;PMS_P1;PMS_P2;Temp;Humidity;BMP_temperature;BMP_pressure;BME280_temperature;BME280_humidity;BME280_pressure;Samples;Min_cycle;Max_cycle;Signal;HPM_P1;HPM_P2
2023/12/15 00:01:42;;;;;;;9.20;7.10;;;;;;;;;;5084502;28;20257;-73
2023/12/15 00:04:10;;;;;;;7.30;5.65;;;;;;;;;;5084189;28;20196;-73
2023/12/15 00:06:36;;;;;;;6.88;5.88;;;;;;;;;;5087872;28;20224;-72
2023/12/15 00:09:03;;;;;;;6.85;6.15;;;;;;;;;;5089329;28;20196;-72
2023/12/15 00:11:29;;;;;;;6.57;5.82;;;;;;;;;;5084256;28;20485;-72
2023/12/15 00:13:55;;;;;;;6.93;6.22;;;;;;;;;;5092475;28;20692;-72
2023/12/15 00:16:21;;;;;;;7.15;5.97;;;;;;;;;;5084240;28;20641;-73
2023/12/15 00:18:48;;;;;;;6.00;5.40;;;;;;;;;;5084044;28;20263;-72
2023/12/15 00:21:15;;;;;;;6.55;5.70;;;;;;;;;;5084007;28;20231;-72
2023/12/15 00:23:41;;;;;;;6.75;5.88;;;;;;;;;;5087047;28;20200;-73
2023/12/15 00:26:08;;;;;;;8.57;6.07;;;;;;;;;;5088640;28;20281;-72
2023/12/15 00:28:34;;;;;;;8.43;6.50;;;;;;;;;;5084896;28;20192;-72
2023/12/15 00:31:00;;;;;;;7.10;6.20;;;;;;;;;;5084443;28;20200;-73
2023/12/15 00:33:26;;;;;;;8.57;5.80;;;;;;;;;;5083753;28;20200;-72
2023/12/15 00:35:53;;;;;;;6.07;5.43;;;;;;;;;;5085689;28;20239;-72
2023/12/15 00:38:20;;;;;;;9.20;6.28;;;;;;;;;;5088883;28;20200;-73
2023/12/15 00:40:46;;;;;;;6.70;5.97;;;;;;;;;;5086405;28;20219;-73
2023/12/15 00:43:14;;;;;;;8.18;6.20;;;;;;;;;;5074246;28;20200;-72
2023/12/15 00:45:41;;;;;;;9.55;6.40;;;;;;;;;;5084930;28;20252;-73
2023/12/15 00:48:08;;;;;;;9.40;5.93;;;;;;;;;;5083376;28;20572;-73
2023/12/15 00:50:34;;;;;;;8.43;6.85;;;;;;;;;;5083583;28;20242;-73
2023/12/15 00:53:00;;;;;;;8.50;6.15;;;;;;;;;;5084357;28;20696;-73
2023/12/15 00:55:28;;;;;;;9.20;6.38;;;;;;;;;;5082867;28;20636;-74
2023/12/15 00:57:54;;;;;;;9.80;6.68;;;;;;;;;;5085266;28;20731;-73
2023/12/15 01:00:21;;;;;;;9.18;6.38;;;;;;;;;;5090648;28;20637;-73
2023/12/15 01:02:47;;;;;;;6.03;5.05;;;;;;;;;;5078145;28;20208;-73
2023/12/15 01:05:13;;;;;;;6.75;5.90;;;;;;;;;;5088463;28;20216;-74
2023/12/15 01:07:39;;;;;;;8.82;6.38;;;;;;;;;;5084697;28;20199;-73
2023/12/15 01:10:06;;;;;;;10.18;6.68;;;;;;;;;;5083765;28;20691;-73
2023/12/15 01:12:34;;;;;;;8.85;6.40;;;;;;;;;;5088660;28;20632;-73
2023/12/15 01:15:00;;;;;;;8.90;6.45;;;;;;;;;;5088895;28;20238;-73
2023/12/15 01:17:26;;;;;;;9.23;6.85;;;;;;;;;;5091523;28;20211;-73
2023/12/15 01:19:52;;;;;;;10.52;7.15;;;;;;;;;;5089932;28;20274;-72
2023/12/15 01:22:19;;;;;;;10.20;6.63;;;;;;;;;;5088695;28;20200;-73
2023/12/15 01:24:45;;;;;;;9.95;7.47;;;;;;;;;;5084697;28;20219;-73
2023/12/15 01:27:11;;;;;;;10.40;7.47;;;;;;;;;;5082561;28;20261;-73
2023/12/15 01:29:39;;;;;;;10.57;6.95;;;;;;;;;;5083988;28;20195;-73
2023/12/15 01:32:06;;;;;;;8.20;7.05;;;;;;;;;;5083212;28;20211;-73
2023/12/15 01:34:32;;;;;;;9.20;7.13;;;;;;;;;;5082926;28;20265;-73
2023/12/15 01:36:58;;;;;;;11.18;7.63;;;;;;;;;;5084576;28;20204;-73
2023/12/15 01:39:24;;;;;;;10.30;7.28;;;;;;;;;;5081357;28;20244;-74
2023/12/15 01:41:50;;;;;;;8.98;6.90;;;;;;;;;;5083149;28;20253;-74
2023/12/15 01:44:17;;;;;;;9.73;7.38;;;;;;;;;;5082959;28;20219;-73
2023/12/15 01:46:44;;;;;;;10.82;7.57;;;;;;;;;;5086777;28;20217;-74
2023/12/15 01:49:11;;;;;;;10.90;7.57;;;;;;;;;;5087595;28;20200;-73
2023/12/15 01:51:37;;;;;;;10.82;6.85;;;;;;;;;;5079531;28;20258;-73
2023/12/15 01:54:04;;;;;;;10.85;7.43;;;;;;;;;;5086595;28;20208;-73
2023/12/15 01:56:30;;;;;;;10.18;7.63;;;;;;;;;;5082926;28;20229;-73
2023/12/15 01:58:56;;;;;;;8.82;7.22;;;;;;;;;;5084923;28;20222;-74
2023/12/15 02:01:22;;;;;;;10.20;7.35;;;;;;;;;;5086496;28;20220;-73
2023/12/15 02:03:50;;;;;;;12.77;8.25;;;;;;;;;;5089840;28;20250;-74
2023/12/15 02:06:16;;;;;;;11.88;8.43;;;;;;;;;;5091279;28;20223;-73
2023/12/15 02:08:43;;;;;;;8.25;6.75;;;;;;;;;;5086870;28;20249;-73
2023/12/15 02:11:10;;;;;;;9.93;7.13;;;;;;;;;;5086712;28;20276;-73
2023/12/15 02:13:36;;;;;;;9.90;7.60;;;;;;;;;;5083345;28;20209;-73
2023/12/15 02:16:02;;;;;;;10.35;7.70;;;;;;;;;;5089995;28;20219;-73
2023/12/15 02:18:28;;;;;;;12.60;8.57;;;;;;;;;;5086099;28;20196;-73
2023/12/15 02:20:56;;;;;;;13.98;9.13;;;;;;;;;;5086062;28;20695;-73
2023/12/15 02:23:24;;;;;;;10.10;8.02;;;;;;;;;;5086168;28;20196;-73
2023/12/15 02:25:50;;;;;;;10.45;7.80;;;;;;;;;;5094769;28;20277;-73
2023/12/15 02:28:16;;;;;;;11.52;7.78;;;;;;;;;;5086052;28;20565;-74
2023/12/15 02:30:43;;;;;;;11.73;7.85;;;;;;;;;;5082176;28;20196;-74
2023/12/15 02:33:11;;;;;;;8.93;7.38;;;;;;;;;;5082472;28;20258;-73
2023/12/15 02:35:37;;;;;;;10.05;7.57;;;;;;;;;;5091230;28;20235;-73
2023/12/15 02:38:07;;;;;;;9.13;7.18;;;;;;;;;;5089408;28;20278;-73
2023/12/15 02:40:35;;;;;;;10.07;7.40;;;;;;;;;;5086260;28;20302;-73
2023/12/15 02:43:01;;;;;;;8.55;7.40;;;;;;;;;;5085836;28;20476;-73
2023/12/15 02:45:27;;;;;;;10.32;7.78;;;;;;;;;;5085643;28;20232;-73
2023/12/15 02:47:53;;;;;;;8.88;7.30;;;;;;;;;;5089110;28;20271;-73
2023/12/15 02:50:20;;;;;;;7.93;6.53;;;;;;;;;;5090297;28;20196;-73
2023/12/15 02:52:46;;;;;;;8.52;7.55;;;;;;;;;;5086307;28;20200;-73
2023/12/15 02:55:13;;;;;;;8.82;7.40;;;;;;;;;;5085680;28;20227;-73
2023/12/15 02:57:40;;;;;;;8.48;6.57;;;;;;;;;;5085730;28;20192;-73
2023/12/15 03:00:07;;;;;;;9.13;7.00;;;;;;;;;;5086931;28;20685;-73
2023/12/15 03:02:33;;;;;;;8.57;6.05;;;;;;;;;;5090105;28;20668;-73
2023/12/15 03:05:00;;;;;;;6.85;5.90;;;;;;;;;;5087764;28;20636;-74
2023/12/15 03:07:26;;;;;;;8.27;5.72;;;;;;;;;;5085411;28;20677;-74
2023/12/15 03:09:52;;;;;;;6.60;5.90;;;;;;;;;;5088936;28;20563;-74
2023/12/15 03:12:18;;;;;;;7.05;5.97;;;;;;;;;;5090151;28;20204;-74
2023/12/15 03:14:46;;;;;;;7.40;6.25;;;;;;;;;;5085240;28;20261;-74
2023/12/15 03:17:12;;;;;;;6.90;5.75;;;;;;;;;;5086246;28;20204;-73
2023/12/15 03:19:39;;;;;;;8.20;6.63;;;;;;;;;;5090297;28;20200;-74
2023/12/15 03:22:05;;;;;;;10.95;6.60;;;;;;;;;;5087919;28;20302;-73
2023/12/15 03:24:31;;;;;;;7.47;6.68;;;;;;;;;;5084996;28;20211;-74
2023/12/15 03:26:57;;;;;;;7.03;6.03;;;;;;;;;;5085060;28;20211;-73
2023/12/15 03:29:24;;;;;;;7.70;6.40;;;;;;;;;;5084717;28;20230;-74
2023/12/15 03:31:51;;;;;;;7.07;6.13;;;;;;;;;;5089405;28;20203;-74
2023/12/15 03:34:17;;;;;;;7.60;6.85;;;;;;;;;;5089145;28;20560;-74
2023/12/15 03:36:44;;;;;;;8.07;6.55;;;;;;;;;;5081624;28;20220;-73
2023/12/15 03:39:10;;;;;;;11.77;6.72;;;;;;;;;;5088080;28;20196;-73
2023/12/15 03:41:36;;;;;;;8.52;6.82;;;;;;;;;;5084976;28;20220;-74
2023/12/15 03:44:03;;;;;;;6.50;5.80;;;;;;;;;;5084515;28;20278;-73
2023/12/15 03:46:30;;;;;;;7.30;6.45;;;;;;;;;;5091818;28;20580;-74
2023/12/15 03:48:58;;;;;;;6.55;5.85;;;;;;;;;;5085874;28;20195;-73
2023/12/15 03:51:24;;;;;;;7.88;6.97;;;;;;;;;;5084414;28;20208;-73
2023/12/15 03:53:50;;;;;;;10.25;7.22;;;;;;;;;;5084375;28;20200;-73
2023/12/15 03:56:23;;;;;;;8.15;6.88;;;;;;;;;;5085465;28;20307;-74
2023/12/15 03:58:50;;;;;;;10.00;7.90;;;;;;;;;;5080969;28;20197;-74
2023/12/15 04:01:16;;;;;;;10.07;7.45;;;;;;;;;;5088129;28;20245;-74
2023/12/15 04:03:42;;;;;;;11.32;7.40;;;;;;;;;;5084145;28;20208;-74
2023/12/15 04:06:10;;;;;;;7.20;6.50;;;;;;;;;;5084085;28;20849;-74
2023/12/15 04:08:36;;;;;;;9.05;7.03;;;;;;;;;;5083986;28;20688;-74
2023/12/15 04:11:02;;;;;;;9.05;6.90;;;;;;;;;;5087450;28;20208;-74
2023/12/15 04:13:28;;;;;;;9.13;7.18;;;;;;;;;;5088513;28;20207;-73
2023/12/15 04:15:55;;;;;;;8.13;7.20;;;;;;;;;;5083965;28;20871;-73
2023/12/15 04:18:21;;;;;;;11.35;7.43;;;;;;;;;;5084319;28;20203;-73
2023/12/15 04:20:47;;;;;;;10.25;8.82;;;;;;;;;;5087170;28;20433;-73
2023/12/15 04:23:15;;;;;;;8.10;6.93;;;;;;;;;;5084324;28;20467;-73
2023/12/15 04:25:41;;;;;;;10.00;7.53;;;;;;;;;;5080906;28;20273;-72
2023/12/15 04:28:07;;;;;;;7.90;7.10;;;;;;;;;;5080991;28;20199;-72
2023/12/15 04:30:33;;;;;;;8.30;6.85;;;;;;;;;;5080978;28;20196;-72
2023/12/15 04:32:59;;;;;;;7.82;6.63;;;;;;;;;;5084966;28;20208;-72
2023/12/15 04:35:25;;;;;;;8.30;6.72;;;;;;;;;;5086228;28;20571;-73
2023/12/15 04:37:51;;;;;;;9.15;7.22;;;;;;;;;;5080346;28;20734;-73
2023/12/15 04:40:19;;;;;;;8.27;6.97;;;;;;;;;;5087108;28;20737;-72
2023/12/15 04:42:45;;;;;;;8.43;6.70;;;;;;;;;;5083203;28;20664;-72
2023/12/15 04:45:11;;;;;;;9.23;7.25;;;;;;;;;;5083462;28;20272;-73
2023/12/15 04:47:38;;;;;;;39.60;17.40;;;;;;;;;;5083439;28;20573;-73
2023/12/15 04:50:04;;;;;;;42.75;19.17;;;;;;;;;;5087146;28;20231;-73
2023/12/15 04:52:30;;;;;;;69.78;27.85;;;;;;;;;;5080197;28;20192;-73
2023/12/15 04:54:57;;;;;;;65.35;27.73;;;;;;;;;;5083873;28;20215;-73
2023/12/15 04:57:24;;;;;;;26.77;13.57;;;;;;;;;;5084402;28;20208;-72
2023/12/15 04:59:50;;;;;;;15.65;9.70;;;;;;;;;;5088321;28;20200;-73
2023/12/15 05:02:17;;;;;;;13.07;9.20;;;;;;;;;;5086578;28;20215;-73
2023/12/15 05:04:43;;;;;;;10.93;7.78;;;;;;;;;;5083222;28;20204;-72
2023/12/15 05:07:09;;;;;;;9.20;6.65;;;;;;;;;;5083773;28;20200;-73
2023/12/15 05:09:35;;;;;;;8.90;7.43;;;;;;;;;;5083329;28;20204;-73
2023/12/15 05:12:01;;;;;;;10.52;7.22;;;;;;;;;;5087776;28;20726;-73
2023/12/15 05:14:29;;;;;;;8.02;7.10;;;;;;;;;;5088067;28;20249;-73
2023/12/15 05:16:55;;;;;;;7.57;6.50;;;;;;;;;;5080036;28;20253;-73
2023/12/15 05:19:21;;;;;;;7.53;6.70;;;;;;;;;;5086602;28;20257;-73
2023/12/15 05:21:47;;;;;;;7.18;6.45;;;;;;;;;;5083129;28;20216;-73
2023/12/15 05:24:15;;;;;;;8.15;6.50;;;;;;;;;;5082991;28;20248;-73
2023/12/15 05:26:41;;;;;;;9.43;6.70;;;;;;;;;;5082991;28;20224;-73
2023/12/15 05:29:07;;;;;;;7.55;6.78;;;;;;;;;;5091706;28;20257;-73
2023/12/15 05:31:35;;;;;;;9.45;6.82;;;;;;;;;;5083289;28;20249;-73
2023/12/15 05:34:01;;;;;;;7.72;6.85;;;;;;;;;;5087176;28;20207;-73
2023/12/15 05:36:27;;;;;;;6.65;6.05;;;;;;;;;;5088096;28;20220;-73
2023/12/15 05:38:53;;;;;;;6.82;6.20;;;;;;;;;;5094930;28;20204;-73
2023/12/15 05:41:20;;;;;;;6.68;5.78;;;;;;;;;;5087335;28;20219;-73
2023/12/15 05:43:46;;;;;;;8.23;6.32;;;;;;;;;;5085328;28;20211;-74
2023/12/15 05:46:12;;;;;;;6.90;6.13;;;;;;;;;;5089017;28;20234;-73
2023/12/15 05:48:40;;;;;;;7.10;6.22;;;;;;;;;;5086684;28;20683;-73
2023/12/15 05:51:07;;;;;;;7.78;6.25;;;;;;;;;;5086774;28;20200;-74
2023/12/15 05:53:33;;;;;;;7.05;6.15;;;;;;;;;;5086726;28;20652;-74
2023/12/15 05:56:00;;;;;;;6.45;5.80;;;;;;;;;;5083237;28;20631;-73
2023/12/15 05:58:26;;;;;;;7.32;6.53;;;;;;;;;;5090184;28;20683;-74
2023/12/15 06:00:52;;;;;;;6.78;6.07;;;;;;;;;;5086370;28;20617;-73
2023/12/15 06:03:18;;;;;;;9.13;7.10;;;;;;;;;;5086490;28;20227;-74
2023/12/15 06:05:46;;;;;;;7.15;6.20;;;;;;;;;;5086629;28;20220;-74
2023/12/15 06:08:13;;;;;;;10.20;6.53;;;;;;;;;;5089819;28;20270;-74
2023/12/15 06:10:40;;;;;;;7.07;6.38;;;;;;;;;;5091253;28;20249;-74
2023/12/15 06:13:06;;;;;;;8.38;7.43;;;;;;;;;;5086958;28;20246;-73
2023/12/15 06:15:33;;;;;;;8.23;6.25;;;;;;;;;;5086443;28;20314;-74
2023/12/15 06:18:00;;;;;;;9.48;7.53;;;;;;;;;;5086346;28;20430;-74
2023/12/15 06:20:26;;;;;;;9.02;7.60;;;;;;;;;;5087661;28;20247;-74
2023/12/15 06:22:54;;;;;;;8.63;7.00;;;;;;;;;;5090951;28;20277;-74
2023/12/15 06:25:20;;;;;;;7.15;6.45;;;;;;;;;;5088760;28;20231;-73
2023/12/15 06:27:46;;;;;;;6.82;5.93;;;;;;;;;;5086208;28;20249;-73
2023/12/15 06:30:13;;;;;;;7.15;5.97;;;;;;;;;;5086233;28;20257;-74
2023/12/15 06:32:39;;;;;;;9.30;6.22;;;;;;;;;;5085747;28;20642;-74
2023/12/15 06:35:06;;;;;;;11.13;6.22;;;;;;;;;;5094535;28;20645;-73
2023/12/15 06:37:32;;;;;;;8.80;6.43;;;;;;;;;;5086143;28;20287;-73
2023/12/15 06:40:00;;;;;;;6.72;6.13;;;;;;;;;;5085862;28;20252;-73
2023/12/15 06:42:26;;;;;;;8.75;6.88;;;;;;;;;;5087423;28;20699;-73
2023/12/15 06:44:52;;;;;;;7.97;6.63;;;;;;;;;;5089709;28;20220;-73
2023/12/15 06:47:19;;;;;;;9.30;7.32;;;;;;;;;;5087847;28;20256;-72
2023/12/15 06:49:45;;;;;;;8.13;7.00;;;;;;;;;;5085203;28;20216;-61
2023/12/15 06:52:11;;;;;;;13.82;7.68;;;;;;;;;;5085722;28;20196;-60
2023/12/15 06:54:38;;;;;;;7.80;7.03;;;;;;;;;;5085859;28;20246;-60
2023/12/15 06:57:06;;;;;;;10.55;7.30;;;;;;;;;;5085435;28;20328;-60
2023/12/15 06:59:32;;;;;;;8.23;7.15;;;;;;;;;;5086410;28;20196;-60
2023/12/15 07:01:59;;;;;;;9.13;7.95;;;;;;;;;;5089824;28;20809;-59
2023/12/15 07:04:25;;;;;;;9.30;7.05;;;;;;;;;;5087842;28;20291;-60
2023/12/15 07:06:52;;;;;;;9.52;7.28;;;;;;;;;;5085325;28;20200;-60
2023/12/15 07:09:19;;;;;;;9.45;7.35;;;;;;;;;;5085226;28;20196;-60
2023/12/15 07:11:45;;;;;;;8.57;7.50;;;;;;;;;;5085201;28;20246;-60
2023/12/15 07:14:13;;;;;;;18.33;10.40;;;;;;;;;;5089281;28;20203;-60
2023/12/15 07:16:39;;;;;;;12.32;8.75;;;;;;;;;;5089334;28;20223;-60
2023/12/15 07:19:05;;;;;;;10.77;8.23;;;;;;;;;;5081508;28;20254;-60
2023/12/15 07:21:31;;;;;;;12.93;7.97;;;;;;;;;;5088361;28;20269;-60
2023/12/15 07:23:58;;;;;;;9.57;7.28;;;;;;;;;;5084752;28;20216;-60
2023/12/15 07:26:24;;;;;;;8.75;7.85;;;;;;;;;;5084755;28;20219;-59
2023/12/15 07:28:50;;;;;;;9.43;7.25;;;;;;;;;;5084441;28;20279;-60
2023/12/15 07:31:18;;;;;;;10.68;7.50;;;;;;;;;;5084695;28;20204;-60
2023/12/15 07:33:44;;;;;;;9.95;7.82;;;;;;;;;;5084697;28;20204;-60
2023/12/15 07:36:11;;;;;;;10.80;7.80;;;;;;;;;;5089471;28;20216;-60
2023/12/15 07:38:37;;;;;;;10.48;7.50;;;;;;;;;;5088712;28;20200;-60
2023/12/15 07:41:05;;;;;;;8.93;7.53;;;;;;;;;;5084647;28;20204;-60
2023/12/15 07:43:31;;;;;;;11.70;8.10;;;;;;;;;;5084329;28;20218;-60
2023/12/15 07:45:57;;;;;;;10.48;7.20;;;;;;;;;;5084090;28;20220;-59
2023/12/15 07:48:25;;;;;;;9.88;7.25;;;;;;;;;;5087521;28;20200;-60
2023/12/15 07:50:52;;;;;;;11.35;7.22;;;;;;;;;;5089519;28;20214;-60
2023/12/15 07:53:18;;;;;;;8.88;7.50;;;;;;;;;;5085548;28;20199;-59
2023/12/15 07:55:44;;;;;;;9.52;7.20;;;;;;;;;;5084598;28;20209;-60
2023/12/15 07:58:10;;;;;;;8.52;6.75;;;;;;;;;;5084135;28;20219;-60
2023/12/15 08:00:37;;;;;;;9.20;6.50;;;;;;;;;;5085219;28;20283;-60
2023/12/15 08:03:03;;;;;;;8.10;6.78;;;;;;;;;;5088896;28;20223;-60
2023/12/15 08:05:31;;;;;;;8.85;6.95;;;;;;;;;;5086790;28;20219;-60
2023/12/15 08:07:58;;;;;;;12.38;7.45;;;;;;;;;;5084253;28;20200;-60
2023/12/15 08:10:26;;;;;;;7.68;6.82;;;;;;;;;;5083990;28;20192;-60
2023/12/15 08:12:53;;;;;;;7.80;6.53;;;;;;;;;;5083665;28;20197;-59
2023/12/15 08:15:20;;;;;;;6.95;6.43;;;;;;;;;;5087505;28;20216;-59
2023/12/15 08:17:46;;;;;;;8.30;6.65;;;;;;;;;;5088765;28;20202;-59
2023/12/15 08:20:12;;;;;;;8.32;6.85;;;;;;;;;;5080389;28;20196;-62
2023/12/15 08:22:40;;;;;;;11.50;6.88;;;;;;;;;;5087238;28;20592;-60
2023/12/15 08:25:07;;;;;;;7.97;6.57;;;;;;;;;;5075207;28;20600;-60
2023/12/15 08:27:34;;;;;;;7.45;6.55;;;;;;;;;;5085811;28;20627;-60
2023/12/15 08:30:01;;;;;;;8.10;6.60;;;;;;;;;;5088273;28;20286;-60
2023/12/15 08:32:27;;;;;;;9.32;7.30;;;;;;;;;;5085132;28;20541;-61
2023/12/15 08:34:53;;;;;;;9.48;7.35;;;;;;;;;;5083330;28;20712;-59
2023/12/15 08:37:19;;;;;;;13.70;6.88;;;;;;;;;;5083502;28;20203;-59
2023/12/15 08:39:47;;;;;;;8.75;7.20;;;;;;;;;;5083763;28;20201;-60
2023/12/15 08:42:13;;;;;;;12.45;7.38;;;;;;;;;;5082863;28;20272;-60
2023/12/15 08:44:39;;;;;;;6.72;5.97;;;;;;;;;;5083435;28;20253;-60
2023/12/15 08:47:06;;;;;;;7.20;6.38;;;;;;;;;;5086882;28;20265;-59
2023/12/15 08:49:33;;;;;;;7.28;5.40;;;;;;;;;;5084409;28;20234;-60
2023/12/15 08:51:59;;;;;;;7.40;6.60;;;;;;;;;;5082105;28;20253;-60
2023/12/15 08:54:25;;;;;;;6.50;5.97;;;;;;;;;;5082156;28;20656;-60
2023/12/15 08:56:53;;;;;;;7.30;6.10;;;;;;;;;;5081616;28;20223;-60
2023/12/15 08:59:19;;;;;;;7.55;6.40;;;;;;;;;;5087407;28;20222;-60
2023/12/15 09:01:45;;;;;;;9.70;6.35;;;;;;;;;;5087176;28;20204;-60
2023/12/15 09:04:11;;;;;;;7.13;6.53;;;;;;;;;;5083057;28;20204;-60
2023/12/15 09:06:38;;;;;;;7.15;6.45;;;;;;;;;;5082750;28;20220;-60
2023/12/15 09:09:04;;;;;;;7.47;6.78;;;;;;;;;;5082941;28;20196;-60
2023/12/15 09:11:30;;;;;;;8.05;7.00;;;;;;;;;;5086234;28;20196;-60
2023/12/15 09:14:00;;;;;;;7.43;6.63;;;;;;;;;;5087955;28;20241;-60
2023/12/15 09:16:26;;;;;;;8.55;6.80;;;;;;;;;;5084174;28;20223;-60
2023/12/15 09:18:52;;;;;;;7.35;6.43;;;;;;;;;;5083065;28;20249;-60
2023/12/15 09:21:19;;;;;;;6.82;6.30;;;;;;;;;;5079690;28;20200;-60
2023/12/15 09:23:45;;;;;;;7.22;6.53;;;;;;;;;;5086546;28;20269;-60
2023/12/15 09:26:11;;;;;;;7.63;6.35;;;;;;;;;;5082659;28;20219;-60
2023/12/15 09:28:38;;;;;;;7.97;7.00;;;;;;;;;;5082800;28;20690;-60
2023/12/15 09:31:06;;;;;;;7.85;7.10;;;;;;;;;;5082944;28;20659;-60
2023/12/15 09:33:32;;;;;;;7.47;6.75;;;;;;;;;;5086071;28;20189;-60
2023/12/15 09:35:58;;;;;;;7.93;7.13;;;;;;;;;;5087758;28;20219;-60
2023/12/15 09:38:25;;;;;;;7.40;6.60;;;;;;;;;;5083482;28;20227;-59
2023/12/15 09:40:51;;;;;;;8.88;7.07;;;;;;;;;;5082960;28;20199;-60
2023/12/15 09:43:17;;;;;;;9.00;7.75;;;;;;;;;;5082728;28;20208;-61
2023/12/15 09:45:44;;;;;;;7.75;6.95;;;;;;;;;;5084633;28;20213;-60
2023/12/15 09:48:12;;;;;;;8.10;7.30;;;;;;;;;;5087550;28;20195;-60
2023/12/15 09:50:40;;;;;;;7.55;6.93;;;;;;;;;;5085127;28;20253;-60
2023/12/15 09:53:06;;;;;;;9.35;7.72;;;;;;;;;;5082379;28;20211;-60
2023/12/15 09:55:33;;;;;;;7.15;6.43;;;;;;;;;;5082807;28;20216;-60
2023/12/15 09:58:00;;;;;;;8.18;7.25;;;;;;;;;;5082746;28;20250;-60
2023/12/15 10:00:26;;;;;;;12.10;10.13;;;;;;;;;;5087003;28;20192;-60
2023/12/15 10:02:53;;;;;;;10.70;9.60;;;;;;;;;;5086667;28;20212;-61
2023/12/15 10:05:21;;;;;;;9.75;8.75;;;;;;;;;;5079677;28;20212;-60
2023/12/15 10:07:47;;;;;;;8.73;7.85;;;;;;;;;;5086403;28;20656;-60
2023/12/15 10:10:15;;;;;;;8.57;7.78;;;;;;;;;;5082454;28;20649;-60
2023/12/15 10:12:41;;;;;;;9.18;7.70;;;;;;;;;;5082563;28;20241;-61
2023/12/15 10:15:07;;;;;;;11.55;8.02;;;;;;;;;;5082522;28;20600;-60
2023/12/15 10:17:34;;;;;;;12.68;9.45;;;;;;;;;;5086167;28;20291;-60
2023/12/15 10:20:07;;;;;;;10.93;8.93;;;;;;;;;;5089428;28;20278;-60
2023/12/15 10:22:35;;;;;;;12.57;9.10;;;;;;;;;;5085940;28;20635;-60
2023/12/15 10:25:02;;;;;;;11.15;9.32;;;;;;;;;;5086224;28;20220;-60
2023/12/15 10:27:28;;;;;;;14.23;9.07;;;;;;;;;;5090285;28;20564;-60
2023/12/15 10:29:55;;;;;;;12.82;9.40;;;;;;;;;;5089989;28;20721;-61
2023/12/15 10:32:21;;;;;;;15.20;10.77;;;;;;;;;;5085818;28;20245;-61
2023/12/15 10:34:51;;;;;;;16.98;11.13;;;;;;;;;;5085604;28;20216;-60
2023/12/15 10:37:17;;;;;;;12.18;9.50;;;;;;;;;;5085607;28;20553;-60
2023/12/15 10:39:46;;;;;;;9.75;8.75;;;;;;;;;;5088499;28;20246;-61
2023/12/15 10:42:13;;;;;;;10.30;7.60;;;;;;;;;;5090290;28;20572;-60
2023/12/15 10:44:40;;;;;;;9.82;8.02;;;;;;;;;;5087584;28;20265;-60
2023/12/15 10:47:08;;;;;;;8.60;7.75;;;;;;;;;;5085503;28;20211;-61
2023/12/15 10:49:36;;;;;;;8.80;7.88;;;;;;;;;;5085505;28;20299;-60
2023/12/15 10:52:03;;;;;;;8.30;7.50;;;;;;;;;;5085732;28;20306;-60
2023/12/15 10:54:30;;;;;;;7.88;7.10;;;;;;;;;;5082128;28;20196;-59
2023/12/15 10:56:58;;;;;;;8.98;8.07;;;;;;;;;;5089447;28;20204;-61
2023/12/15 10:59:25;;;;;;;11.20;8.32;;;;;;;;;;5085453;28;20257;-59
2023/12/15 11:01:54;;;;;;;8.82;7.93;;;;;;;;;;5085331;28;20740;-60
2023/12/15 11:04:21;;;;;;;8.48;7.60;;;;;;;;;;5085372;28;20216;-60
2023/12/15 11:06:47;;;;;;;12.25;7.97;;;;;;;;;;5087819;28;20221;-60
2023/12/15 11:09:25;;;;;;;12.38;8.18;;;;;;;;;;5090218;28;20204;-60
2023/12/15 11:11:53;;;;;;;9.35;8.35;;;;;;;;;;5081801;28;20269;-59
2023/12/15 11:14:20;;;;;;;8.05;7.35;;;;;;;;;;5089804;28;20196;-60
2023/12/15 11:16:48;;;;;;;9.77;7.47;;;;;;;;;;5087714;28;20223;-59
2023/12/15 11:19:15;;;;;;;9.23;7.85;;;;;;;;;;5084728;28;20573;-60
2023/12/15 11:21:41;;;;;;;9.05;7.70;;;;;;;;;;5085007;28;20199;-59
2023/12/15 11:24:07;;;;;;;9.30;7.00;;;;;;;;;;5084602;28;20216;-60
2023/12/15 11:26:37;;;;;;;9.75;8.73;;;;;;;;;;5089181;28;20311;-61
2023/12/15 11:29:04;;;;;;;7.55;6.85;;;;;;;;;;5089230;28;20207;-61
2023/12/15 11:31:33;;;;;;;6.85;6.25;;;;;;;;;;5081182;28;20279;-61
2023/12/15 11:33:59;;;;;;;8.30;6.97;;;;;;;;;;5088540;28;20267;-60
2023/12/15 11:36:27;;;;;;;8.00;7.20;;;;;;;;;;5084560;28;20219;-59
2023/12/15 11:38:55;;;;;;;8.07;7.28;;;;;;;;;;5084556;28;20432;-60
2023/12/15 11:41:22;;;;;;;6.90;6.22;;;;;;;;;;5084414;28;20230;-60
2023/12/15 11:43:49;;;;;;;8.35;6.68;;;;;;;;;;5087347;28;20213;-60
2023/12/15 11:46:15;;;;;;;7.50;6.80;;;;;;;;;;5089463;28;20220;-61
2023/12/15 11:48:43;;;;;;;7.10;6.50;;;;;;;;;;5085936;28;20622;-61
2023/12/15 11:51:09;;;;;;;6.70;6.20;;;;;;;;;;5084414;28;20709;-60
2023/12/15 11:53:41;;;;;;;7.30;6.50;;;;;;;;;;5084409;28;20192;-60
2023/12/15 11:56:09;;;;;;;6.57;5.97;;;;;;;;;;5092695;28;20283;-60
2023/12/15 11:58:35;;;;;;;7.38;6.78;;;;;;;;;;5080833;28;20718;-60
2023/12/15 12:01:02;;;;;;;6.72;6.05;;;;;;;;;;5088331;28;20300;-60
2023/12/15 12:03:31;;;;;;;7.53;6.38;;;;;;;;;;5084241;28;20306;-60
2023/12/15 12:05:58;;;;;;;7.88;6.28;;;;;;;;;;5084144;28;20659;-60
2023/12/15 12:08:24;;;;;;;6.15;5.60;;;;;;;;;;5084048;28;20673;-60
2023/12/15 12:10:53;;;;;;;6.20;5.60;;;;;;;;;;5086834;28;20219;-60
2023/12/15 12:13:20;;;;;;;6.35;5.68;;;;;;;;;;5089082;28;20298;-60
2023/12/15 12:15:51;;;;;;;7.25;6.18;;;;;;;;;;5085395;28;20594;-60
2023/12/15 12:18:18;;;;;;;6.80;6.10;;;;;;;;;;5083928;28;20203;-61
2023/12/15 12:20:44;;;;;;;6.45;5.85;;;;;;;;;;5083921;28;20203;-60
2023/12/15 12:23:12;;;;;;;6.32;5.80;;;;;;;;;;5083606;28;20217;-60
2023/12/15 12:25:42;;;;;;;7.53;5.57;;;;;;;;;;5080199;28;20227;-60
2023/12/15 12:28:08;;;;;;;6.90;5.50;;;;;;;;;;5088091;28;20550;-61
2023/12/15 12:30:34;;;;;;;8.35;6.20;;;;;;;;;;5080219;28;20665;-61
2023/12/15 12:33:00;;;;;;;7.63;5.60;;;;;;;;;;5086876;28;20218;-60
2023/12/15 12:35:27;;;;;;;6.82;6.13;;;;;;;;;;5083326;28;20724;-61
2023/12/15 12:37:53;;;;;;;7.72;6.30;;;;;;;;;;5083532;28;20226;-60
2023/12/15 12:40:21;;;;;;;5.88;5.35;;;;;;;;;;5083270;28;20606;-60
2023/12/15 12:42:47;;;;;;;6.60;5.50;;;;;;;;;;5086575;28;20285;-60
2023/12/15 12:45:14;;;;;;;7.07;6.43;;;;;;;;;;5088293;28;20220;-60
2023/12/15 12:47:41;;;;;;;5.88;5.30;;;;;;;;;;5083959;28;20229;-60
2023/12/15 12:50:09;;;;;;;5.95;5.35;;;;;;;;;;5083412;28;20667;-60
2023/12/15 12:52:36;;;;;;;5.97;5.38;;;;;;;;;;5083334;28;20726;-60
2023/12/15 12:55:06;;;;;;;5.50;5.00;;;;;;;;;;5085176;28;20212;-60
2023/12/15 12:57:34;;;;;;;5.45;5.00;;;;;;;;;;5088711;28;20206;-60
2023/12/15 13:00:00;;;;;;;5.45;4.95;;;;;;;;;;5086207;28;20193;-60
2023/12/15 13:02:27;;;;;;;5.75;4.85;;;;;;;;;;5083009;28;20208;-60
2023/12/15 13:04:53;;;;;;;5.00;4.53;;;;;;;;;;5082967;28;20245;-60
2023/12/15 13:07:20;;;;;;;5.30;4.85;;;;;;;;;;5083303;28;20204;-60
2023/12/15 13:09:46;;;;;;;6.00;4.85;;;;;;;;;;5087100;28;20692;-60
2023/12/15 13:12:17;;;;;;;4.57;4.28;;;;;;;;;;5087537;28;20226;-60
2023/12/15 13:14:45;;;;;;;5.63;4.68;;;;;;;;;;5079705;28;20193;-60
2023/12/15 13:17:11;;;;;;;3.42;3.22;;;;;;;;;;5087326;28;20215;-60
2023/12/15 13:19:38;;;;;;;8.40;4.25;;;;;;;;;;5080026;28;20192;-60
2023/12/15 13:22:04;;;;;;;4.60;4.20;;;;;;;;;;5086097;28;20668;-60
2023/12/15 13:24:30;;;;;;;3.90;3.60;;;;;;;;;;5082878;28;20264;-61
2023/12/15 13:26:57;;;;;;;4.30;4.00;;;;;;;;;;5082890;28;20203;-60
2023/12/15 13:29:23;;;;;;;4.85;4.38;;;;;;;;;;5082768;28;20208;-60
2023/12/15 13:31:51;;;;;;;3.95;3.72;;;;;;;;;;5086863;28;20288;-60
2023/12/15 13:34:17;;;;;;;6.15;4.20;;;;;;;;;;5087828;28;20220;-61
2023/12/15 13:36:44;;;;;;;8.25;5.22;;;;;;;;;;5079584;28;20216;-60
2023/12/15 13:39:12;;;;;;;6.13;5.03;;;;;;;;;;5086663;28;20229;-61
2023/12/15 13:41:38;;;;;;;5.78;5.03;;;;;;;;;;5083009;28;20298;-60
2023/12/15 13:44:04;;;;;;;4.88;4.47;;;;;;;;;;5082686;28;20269;-60
2023/12/15 13:46:31;;;;;;;4.38;4.00;;;;;;;;;;5082927;28;20281;-60
2023/12/15 13:48:58;;;;;;;4.93;4.53;;;;;;;;;;5085824;28;20208;-60
2023/12/15 13:51:25;;;;;;;4.15;3.78;;;;;;;;;;5087553;28;20204;-59
2023/12/15 13:53:54;;;;;;;4.95;4.20;;;;;;;;;;5085423;28;20690;-60
2023/12/15 13:56:20;;;;;;;5.95;4.15;;;;;;;;;;5086522;28;20644;-60
2023/12/15 13:58:46;;;;;;;4.35;3.92;;;;;;;;;;5086590;28;20204;-60
2023/12/15 14:01:13;;;;;;;3.92;3.70;;;;;;;;;;5087566;28;20661;-60
2023/12/15 14:03:39;;;;;;;4.65;4.20;;;;;;;;;;5091329;28;20216;-60
2023/12/15 14:06:08;;;;;;;6.55;3.63;;;;;;;;;;5089589;28;20366;-60
2023/12/15 14:08:35;;;;;;;3.88;3.58;;;;;;;;;;5086241;28;20218;-60
2023/12/15 14:11:01;;;;;;;5.30;4.75;;;;;;;;;;5086414;28;20257;-60
2023/12/15 14:13:27;;;;;;;3.85;3.55;;;;;;;;;;5086235;28;20200;-60
2023/12/15 14:15:53;;;;;;;4.35;3.80;;;;;;;;;;5090731;28;20216;-60
2023/12/15 14:18:20;;;;;;;4.38;4.00;;;;;;;;;;5091347;28;20199;-61
2023/12/15 14:20:46;;;;;;;3.28;3.17;;;;;;;;;;5083144;28;20255;-60
2023/12/15 14:23:13;;;;;;;4.22;3.92;;;;;;;;;;5089805;28;20253;-60
2023/12/15 14:25:40;;;;;;;4.20;3.90;;;;;;;;;;5085969;28;20710;-61
2023/12/15 14:28:06;;;;;;;4.05;3.42;;;;;;;;;;5086311;28;20253;-60
2023/12/15 14:30:32;;;;;;;2.72;2.53;;;;;;;;;;5086247;28;20289;-59
2023/12/15 14:32:59;;;;;;;2.30;2.15;;;;;;;;;;5089767;28;20201;-59
2023/12/15 14:35:26;;;;;;;2.00;1.80;;;;;;;;;;5091247;28;20215;-59
2023/12/15 14:37:52;;;;;;;1.90;1.70;;;;;;;;;;5086695;28;20250;-59